Gainesville, FL

Saat: 12:47 AM EDT Tarix: 26 Aprel 2015 (GMT -0400)
The Duckpond | | Change Station
CLOSE
Current Station
Personal Weather Stations
Location: Gainesville, FL
Elevation: 124 ft
Nearby Weather Stations

Elev 124 ft 29.66 °N, 82.32 °W | Updated 19 seconds ago

Daha
Daha
71.6 ° F
Feels Like 71 ° F
N
0.0
K Də K from Cənub
Gusts 2.0 mph

Bug
High -- | Low -- ° F
--% Chance of Precip.
Yesterday
High -- | Low -- ° F
Precip. -- in
6:51 AM 8:02 PM
First Quarter, 52% visible
Təzyiq 29.73 in
G 8.0 mil
Buludlar Few 10000 ft
Hərarət 71 ° F
67 ° F
Nəmin faizi 84%
Rainfall 0.00 in
Snow Depth Not available.
UV 0 out of 12
Pollen 7.20 out of 12
Air Quality Not available.
Flu Activity Local Activity
METAR KGNV 260353Z AUTO 20009KT 8SM FEW100 23/22 A2974 RMK AO2 RAE21 TSE0259 SLP067 P0004 T02280217 $

More Conditions Fewer Conditions

Təzyiq 29.73 in
G 8.0 mil
Buludlar Few 10000 ft
Hərarət 71 ° F
67 ° F
Nəmin faizi 84%
Rainfall 0.00 in
Snow Depth Not available.
UV 0 out of 12
Pollen 7.20 out of 12
Air Quality Not available.
Flu Activity Local Activity
METAR KGNV 260353Z AUTO 20009KT 8SM FEW100 23/22 A2974 RMK AO2 RAE21 TSE0259 SLP067 P0004 T02280217 $

More Conditions Fewer Conditions

The full scope of the disaster following a powerful 7.8-magnitude earthquake in Nepal may not come into view for days, but global charities are already sending emergency aid. Click to see how you can help.

10-Day Weather Forecast

Almanac

Astronomy

Apr. 26, 2015 Rise Set
Actual Time
Civil Twilight
Nautical Twilight
Astronomical Twilight
Ay
Length Of Visible Light
Length of Day
Tomorrow will be .
, % of the Moon is Illuminated

Today's Extremes

State Highs State Lows

Community

WunderPhotos

Upload Photos

1,816,938 photos uploaded!

WunderBlogs® & News

Nearby

Air Quality

  Air Quality AQ Index Pollutant
Not available.

Snow Depth

Station Depth Elevation

Earthquake Activity

Distance Mag. Time & Date
Minimum magnitude displayed is 2.5.

Coastal Water Temperatures

Yer Hərarət

Stations

Nearby Weather Stations

Station Location Temp Əsinti Nəmin faizi K Precip. Elev Yeniləndi Type